sensor_id;sensor_type;location;lat;lon;timestamp;pressure;altitude;pressure_sealevel;temperature;humidity
22605;BME280;11469;49.024;8.246;2023-03-19T00:01:41;100064.19;;;10.39;85.50
22605;BME280;11469;49.024;8.246;2023-03-19T00:04:07;100063.31;;;10.35;85.29
22605;BME280;11469;49.024;8.246;2023-03-19T00:06:32;100070.09;;;10.34;86.03
22605;BME280;11469;49.024;8.246;2023-03-19T00:08:57;100065.31;;;10.34;86.21
22605;BME280;11469;49.024;8.246;2023-03-19T00:11:23;100081.31;;;10.34;85.94
22605;BME280;11469;49.024;8.246;2023-03-19T00:13:48;100087.19;;;10.28;87.04
22605;BME280;11469;49.024;8.246;2023-03-19T00:16:14;100088.38;;;10.27;88.33
22605;BME280;11469;49.024;8.246;2023-03-19T00:18:39;100093.59;;;10.29;89.06
22605;BME280;11469;49.024;8.246;2023-03-19T00:21:04;100084.31;;;10.25;89.12
22605;BME280;11469;49.024;8.246;2023-03-19T00:23:30;100081.44;;;10.21;90.05
22605;BME280;11469;49.024;8.246;2023-03-19T00:25:56;100079.69;;;10.33;88.79
22605;BME280;11469;49.024;8.246;2023-03-19T00:28:21;100077.16;;;10.27;88.48
22605;BME280;11469;49.024;8.246;2023-03-19T00:30:46;100072.44;;;10.32;89.08
22605;BME280;11469;49.024;8.246;2023-03-19T00:33:12;100079.22;;;10.30;89.37
22605;BME280;11469;49.024;8.246;2023-03-19T00:35:38;100074.44;;;10.31;89.47
22605;BME280;11469;49.024;8.246;2023-03-19T00:38:04;100083.66;;;10.32;89.11
22605;BME280;11469;49.024;8.246;2023-03-19T00:40:30;100088.81;;;10.29;89.39
22605;BME280;11469;49.024;8.246;2023-03-19T00:42:56;100092.88;;;10.32;89.26
22605;BME280;11469;49.024;8.246;2023-03-19T00:45:21;100104.81;;;10.29;89.37
22605;BME280;11469;49.024;8.246;2023-03-19T00:47:47;100107.09;;;10.23;88.47
22605;BME280;11469;49.024;8.246;2023-03-19T00:50:12;100107.34;;;10.18;87.46
22605;BME280;11469;49.024;8.246;2023-03-19T00:52:37;100098.84;;;10.15;88.10
22605;BME280;11469;49.024;8.246;2023-03-19T00:55:03;100105.81;;;10.21;88.40
22605;BME280;11469;49.024;8.246;2023-03-19T00:57:29;100101.28;;;10.16;87.96
22605;BME280;11469;49.024;8.246;2023-03-19T00:59:54;100110.13;;;10.18;87.07
22605;BME280;11469;49.024;8.246;2023-03-19T01:02:20;100116.22;;;10.20;86.90
22605;BME280;11469;49.024;8.246;2023-03-19T01:04:48;100112.31;;;10.25;85.40
22605;BME280;11469;49.024;8.246;2023-03-19T01:07:14;100103.19;;;10.28;83.25
22605;BME280;11469;49.024;8.246;2023-03-19T01:09:39;100112.56;;;10.36;82.44
22605;BME280;11469;49.024;8.246;2023-03-19T01:12:06;100102.53;;;10.35;81.13
22605;BME280;11469;49.024;8.246;2023-03-19T01:14:32;100101.81;;;10.38;81.73
22605;BME280;11469;49.024;8.246;2023-03-19T01:16:58;100109.44;;;10.41;81.20
22605;BME280;11469;49.024;8.246;2023-03-19T01:19:24;100112.31;;;10.44;80.74
22605;BME280;11469;49.024;8.246;2023-03-19T01:21:49;100116.66;;;10.42;81.48
22605;BME280;11469;49.024;8.246;2023-03-19T01:24:15;100121.09;;;10.43;81.55
22605;BME280;11469;49.024;8.246;2023-03-19T01:26:41;100119.91;;;10.44;80.57
22605;BME280;11469;49.024;8.246;2023-03-19T01:29:07;100129.56;;;10.46;80.31
22605;BME280;11469;49.024;8.246;2023-03-19T01:31:34;100129.66;;;10.50;79.71
22605;BME280;11469;49.024;8.246;2023-03-19T01:34:00;100132.00;;;10.48;80.18
22605;BME280;11469;49.024;8.246;2023-03-19T01:36:26;100132.44;;;10.50;79.95
22605;BME280;11469;49.024;8.246;2023-03-19T01:38:52;100132.44;;;10.50;80.18
22605;BME280;11469;49.024;8.246;2023-03-19T01:41:18;100134.53;;;10.53;80.15
22605;BME280;11469;49.024;8.246;2023-03-19T01:43:43;100139.84;;;10.58;79.82
22605;BME280;11469;49.024;8.246;2023-03-19T01:46:30;100135.94;;;10.62;79.33
22605;BME280;11469;49.024;8.246;2023-03-19T01:49:00;100140.72;;;10.62;79.25
22605;BME280;11469;49.024;8.246;2023-03-19T01:51:34;100137.78;;;10.74;78.40
22605;BME280;11469;49.024;8.246;2023-03-19T01:54:04;100134.91;;;10.71;79.42
22605;BME280;11469;49.024;8.246;2023-03-19T01:56:35;100128.47;;;10.70;79.63
22605;BME280;11469;49.024;8.246;2023-03-19T01:59:06;100128.94;;;10.72;79.56
22605;BME280;11469;49.024;8.246;2023-03-19T02:01:38;100126.50;;;10.71;79.71
22605;BME280;11469;49.024;8.246;2023-03-19T02:04:06;100130.47;;;10.70;79.74
22605;BME280;11469;49.024;8.246;2023-03-19T02:06:33;100136.09;;;10.70;80.23
22605;BME280;11469;49.024;8.246;2023-03-19T02:08:59;100138.44;;;10.68;80.83
22605;BME280;11469;49.024;8.246;2023-03-19T02:11:25;100136.00;;;10.66;81.24
22605;BME280;11469;49.024;8.246;2023-03-19T02:13:51;100141.16;;;10.64;81.48
22605;BME280;11469;49.024;8.246;2023-03-19T02:16:16;100137.13;;;10.81;80.75
22605;BME280;11469;49.024;8.246;2023-03-19T02:18:42;100139.78;;;10.74;81.20
22605;BME280;11469;49.024;8.246;2023-03-19T02:21:16;100133.19;;;10.66;81.90
22605;BME280;11469;49.024;8.246;2023-03-19T02:24:02;100136.00;;;10.66;82.04
22605;BME280;11469;49.024;8.246;2023-03-19T02:26:30;100140.72;;;10.62;82.51
22605;BME280;11469;49.024;8.246;2023-03-19T02:28:56;100127.75;;;10.54;82.90
22605;BME280;11469;49.024;8.246;2023-03-19T02:31:22;100132.44;;;10.50;82.97
22605;BME280;11469;49.024;8.246;2023-03-19T02:37:15;100136.50;;;10.52;83.01
22605;BME280;11469;49.024;8.246;2023-03-19T02:39:49;100142.03;;;10.49;83.19
22605;BME280;11469;49.024;8.246;2023-03-19T02:42:17;100139.16;;;10.45;83.38
22605;BME280;11469;49.024;8.246;2023-03-19T02:44:43;100143.50;;;10.43;84.05
22605;BME280;11469;49.024;8.246;2023-03-19T02:47:10;100139.16;;;10.45;83.97
22605;BME280;11469;49.024;8.246;2023-03-19T02:49:35;100147.06;;;10.40;84.05
22605;BME280;11469;49.024;8.246;2023-03-19T02:52:01;100138.66;;;10.40;83.81
22605;BME280;11469;49.024;8.246;2023-03-19T02:54:26;100145.94;;;10.44;83.94
22605;BME280;11469;49.024;8.246;2023-03-19T02:56:52;100141.50;;;10.43;83.84
22605;BME280;11469;49.024;8.246;2023-03-19T02:59:18;100146.31;;;10.43;83.96
22605;BME280;11469;49.024;8.246;2023-03-19T03:01:43;100138.66;;;10.40;83.78
22605;BME280;11469;49.024;8.246;2023-03-19T03:04:08;100138.50;;;10.52;83.40
22605;BME280;11469;49.024;8.246;2023-03-19T03:06:35;100157.91;;;10.60;83.05
22605;BME280;11469;49.024;8.246;2023-03-19T03:09:00;100149.50;;;10.60;82.24
22605;BME280;11469;49.024;8.246;2023-03-19T03:11:26;100151.34;;;10.53;83.24
22605;BME280;11469;49.024;8.246;2023-03-19T03:13:51;100148.81;;;10.48;83.60
22605;BME280;11469;49.024;8.246;2023-03-19T03:16:16;100159.94;;;10.44;83.75
22605;BME280;11469;49.024;8.246;2023-03-19T03:18:42;100149.09;;;10.43;83.92
22605;BME280;11469;49.024;8.246;2023-03-19T03:21:07;100158.28;;;10.40;84.48
22605;BME280;11469;49.024;8.246;2023-03-19T03:23:34;100160.69;;;10.41;84.91
22605;BME280;11469;49.024;8.246;2023-03-19T03:26:00;100162.63;;;10.37;85.35
22605;BME280;11469;49.024;8.246;2023-03-19T03:28:26;100162.97;;;10.36;85.33
22605;BME280;11469;49.024;8.246;2023-03-19T03:30:58;100166.16;;;10.34;85.84
22605;BME280;11469;49.024;8.246;2023-03-19T03:33:24;100163.72;;;10.33;85.41
22605;BME280;11469;49.024;8.246;2023-03-19T03:35:49;100163.19;;;10.27;85.45
22605;BME280;11469;49.024;8.246;2023-03-19T03:38:15;100165.16;;;10.26;86.27
22605;BME280;11469;49.024;8.246;2023-03-19T03:40:40;100159.94;;;10.25;85.95
22605;BME280;11469;49.024;8.246;2023-03-19T03:43:06;100168.69;;;10.23;86.06
22605;BME280;11469;49.024;8.246;2023-03-19T03:45:32;100172.22;;;10.20;86.04
22605;BME280;11469;49.024;8.246;2023-03-19T03:47:57;100163.47;;;10.22;85.98
22605;BME280;11469;49.024;8.246;2023-03-19T03:50:22;100160.28;;;10.23;86.06
22605;BME280;11469;49.024;8.246;2023-03-19T03:52:48;100173.50;;;10.23;85.98
22605;BME280;11469;49.024;8.246;2023-03-19T03:55:13;100163.47;;;10.22;86.27
22605;BME280;11469;49.024;8.246;2023-03-19T03:57:39;100175.84;;;10.21;86.51
22605;BME280;11469;49.024;8.246;2023-03-19T04:00:05;100174.31;;;10.23;86.52
22605;BME280;11469;49.024;8.246;2023-03-19T04:02:30;100182.25;;;10.21;87.01
22605;BME280;11469;49.024;8.246;2023-03-19T04:04:56;100191.34;;;10.18;87.03
22605;BME280;11469;49.024;8.246;2023-03-19T04:07:22;100180.88;;;10.15;87.05
22605;BME280;11469;49.024;8.246;2023-03-19T04:09:47;100185.94;;;10.25;87.48
22605;BME280;11469;49.024;8.246;2023-03-19T04:12:14;100192.44;;;10.29;87.47
22605;BME280;11469;49.024;8.246;2023-03-19T04:14:40;100184.25;;;10.21;87.26
22605;BME280;11469;49.024;8.246;2023-03-19T04:17:05;100185.69;;;10.30;87.64
22605;BME280;11469;49.024;8.246;2023-03-19T04:19:31;100185.13;;;10.25;88.56
22605;BME280;11469;49.024;8.246;2023-03-19T04:21:57;100182.69;;;10.23;87.69
22605;BME280;11469;49.024;8.246;2023-03-19T04:24:24;100194.97;;;10.03;90.26
22605;BME280;11469;49.024;8.246;2023-03-19T04:26:50;100200.03;;;9.97;89.88
22605;BME280;11469;49.024;8.246;2023-03-19T04:29:16;100196.78;;;9.95;90.06
22605;BME280;11469;49.024;8.246;2023-03-19T04:31:42;100194.28;;;9.90;90.29
22605;BME280;11469;49.024;8.246;2023-03-19T04:34:08;100186.72;;;9.91;90.75
22605;BME280;11469;49.024;8.246;2023-03-19T04:36:33;100196.19;;;9.86;90.67
22605;BME280;11469;49.024;8.246;2023-03-19T04:38:59;100191.22;;;9.80;91.13
22605;BME280;11469;49.024;8.246;2023-03-19T04:41:24;100195.19;;;9.79;91.52
22605;BME280;11469;49.024;8.246;2023-03-19T04:43:50;100193.94;;;9.76;91.56
22605;BME280;11469;49.024;8.246;2023-03-19T04:46:15;100196.09;;;9.83;91.78
22605;BME280;11469;49.024;8.246;2023-03-19T04:48:41;100188.78;;;9.78;92.74
22605;BME280;11469;49.024;8.246;2023-03-19T04:51:06;100199.25;;;9.81;92.84
22605;BME280;11469;49.024;8.246;2023-03-19T04:53:36;100198.09;;;9.82;92.67
22605;BME280;11469;49.024;8.246;2023-03-19T04:56:02;100194.94;;;9.84;92.99
22605;BME280;11469;49.024;8.246;2023-03-19T04:58:28;100202.97;;;9.85;92.56
22605;BME280;11469;49.024;8.246;2023-03-19T05:00:53;100203.78;;;9.86;92.42
22605;BME280;11469;49.024;8.246;2023-03-19T05:03:18;100197.38;;;9.85;91.68
22605;BME280;11469;49.024;8.246;2023-03-19T05:05:44;100200.72;;;9.91;89.56
22605;BME280;11469;49.024;8.246;2023-03-19T05:08:10;100200.03;;;10.13;85.64
22605;BME280;11469;49.024;8.246;2023-03-19T05:10:36;100202.75;;;10.25;83.37
22605;BME280;11469;49.024;8.246;2023-03-19T05:13:02;100201.38;;;10.35;81.29
22605;BME280;11469;49.024;8.246;2023-03-19T05:15:28;100206.75;;;10.44;80.17
22605;BME280;11469;49.024;8.246;2023-03-19T05:17:53;100206.56;;;10.52;79.74
22605;BME280;11469;49.024;8.246;2023-03-19T05:20:20;100208.63;;;10.55;79.28
22605;BME280;11469;49.024;8.246;2023-03-19T05:22:46;100211.44;;;10.55;79.29
22605;BME280;11469;49.024;8.246;2023-03-19T05:25:12;100218.13;;;10.51;79.69
22605;BME280;11469;49.024;8.246;2023-03-19T05:27:38;100220.50;;;10.49;80.46
22605;BME280;11469;49.024;8.246;2023-03-19T05:30:04;100212.81;;;10.46;80.64
22605;BME280;11469;49.024;8.246;2023-03-19T05:32:30;100213.53;;;10.43;81.00
22605;BME280;11469;49.024;8.246;2023-03-19T05:34:59;100213.09;;;10.41;81.52
22605;BME280;11469;49.024;8.246;2023-03-19T05:37:24;100213.84;;;10.38;81.90
22605;BME280;11469;49.024;8.246;2023-03-19T05:39:50;100214.59;;;10.35;82.58
22605;BME280;11469;49.024;8.246;2023-03-19T05:42:16;100212.97;;;10.34;82.21
22605;BME280;11469;49.024;8.246;2023-03-19T05:44:41;100215.75;;;10.34;82.73
22605;BME280;11469;49.024;8.246;2023-03-19T05:47:08;100211.06;;;10.38;82.00
22605;BME280;11469;49.024;8.246;2023-03-19T05:49:34;100223.81;;;10.35;82.78
22605;BME280;11469;49.024;8.246;2023-03-19T05:51:59;100222.91;;;10.31;83.58
22605;BME280;11469;49.024;8.246;2023-03-19T05:54:25;100229.22;;;10.28;83.28
22605;BME280;11469;49.024;8.246;2023-03-19T05:56:51;100225.25;;;10.29;82.98
22605;BME280;11469;49.024;8.246;2023-03-19T05:59:16;100226.06;;;10.29;83.85
22605;BME280;11469;49.024;8.246;2023-03-19T06:01:41;100225.63;;;10.27;83.70
22605;BME280;11469;49.024;8.246;2023-03-19T06:04:07;100222.44;;;10.29;83.13
22605;BME280;11469;49.024;8.246;2023-03-19T06:06:32;100217.66;;;10.29;84.07
22605;BME280;11469;49.024;8.246;2023-03-19T06:08:58;100224.88;;;10.30;83.79
22605;BME280;11469;49.024;8.246;2023-03-19T06:11:23;100228.94;;;10.33;83.87
22605;BME280;11469;49.024;8.246;2023-03-19T06:13:48;100230.56;;;10.34;83.93
22605;BME280;11469;49.024;8.246;2023-03-19T06:16:16;100238.97;;;10.34;84.28
22605;BME280;11469;49.024;8.246;2023-03-19T06:18:41;100237.44;;;10.37;83.81
22605;BME280;11469;49.024;8.246;2023-03-19T06:21:07;100237.50;;;10.40;84.26
22605;BME280;11469;49.024;8.246;2023-03-19T06:23:32;100231.53;;;10.42;83.97
22605;BME280;11469;49.024;8.246;2023-03-19T06:25:57;100235.22;;;10.46;83.44
22605;BME280;11469;49.024;8.246;2023-03-19T06:28:23;100239.28;;;10.48;83.82
22605;BME280;11469;49.024;8.246;2023-03-19T06:30:48;100237.75;;;10.51;83.79
22605;BME280;11469;49.024;8.246;2023-03-19T06:33:14;100244.69;;;10.57;84.22
22605;BME280;11469;49.024;8.246;2023-03-19T06:35:39;100245.97;;;10.59;83.37
22605;BME280;11469;49.024;8.246;2023-03-19T06:38:05;100251.66;;;10.63;83.41
22605;BME280;11469;49.024;8.246;2023-03-19T06:40:32;100251.66;;;10.63;83.25
22605;BME280;11469;49.024;8.246;2023-03-19T06:42:57;100254.09;;;10.64;83.39
22605;BME280;11469;49.024;8.246;2023-03-19T06:45:23;100256.81;;;10.61;83.80
22605;BME280;11469;49.024;8.246;2023-03-19T06:47:48;100256.53;;;10.66;83.94
22605;BME280;11469;49.024;8.246;2023-03-19T06:50:15;100252.09;;;10.65;84.34
22605;BME280;11469;49.024;8.246;2023-03-19T06:52:41;100254.44;;;10.63;84.51
22605;BME280;11469;49.024;8.246;2023-03-19T06:55:07;100258.44;;;10.62;84.50
22605;BME280;11469;49.024;8.246;2023-03-19T06:57:33;100256.00;;;10.60;83.91
22605;BME280;11469;49.024;8.246;2023-03-19T06:59:59;100253.28;;;10.64;84.20
22605;BME280;11469;49.024;8.246;2023-03-19T07:02:24;100258.97;;;10.68;83.25
22605;BME280;11469;49.024;8.246;2023-03-19T07:04:50;100270.09;;;10.64;83.10
22605;BME280;11469;49.024;8.246;2023-03-19T07:07:16;100270.91;;;10.64;83.10
22605;BME280;11469;49.024;8.246;2023-03-19T07:09:42;100272.16;;;10.67;83.27
22605;BME280;11469;49.024;8.246;2023-03-19T07:12:07;100273.34;;;10.66;82.72
22605;BME280;11469;49.024;8.246;2023-03-19T07:14:33;100274.69;;;10.72;82.54
22605;BME280;11469;49.024;8.246;2023-03-19T07:16:58;100275.94;;;10.75;82.71
22605;BME280;11469;49.024;8.246;2023-03-19T07:19:23;100276.91;;;10.82;82.24
22605;BME280;11469;49.024;8.246;2023-03-19T07:21:49;100274.56;;;10.84;82.57
22605;BME280;11469;49.024;8.246;2023-03-19T07:24:15;100271.00;;;10.87;82.57
22605;BME280;11469;49.024;8.246;2023-03-19T07:26:40;100271.53;;;10.93;82.30
22605;BME280;11469;49.024;8.246;2023-03-19T07:29:06;100272.41;;;10.97;82.14
22605;BME280;11469;49.024;8.246;2023-03-19T07:31:32;100277.72;;;11.02;81.85
22605;BME280;11469;49.024;8.246;2023-03-19T07:33:57;100286.59;;;11.04;81.30
22605;BME280;11469;49.024;8.246;2023-03-19T07:36:22;100280.25;;;11.07;80.70
22605;BME280;11469;49.024;8.246;2023-03-19T07:38:48;100279.16;;;11.12;80.13
22605;BME280;11469;49.024;8.246;2023-03-19T07:41:13;100286.47;;;11.16;80.04
22605;BME280;11469;49.024;8.246;2023-03-19T07:43:39;100292.59;;;11.22;79.65
22605;BME280;11469;49.024;8.246;2023-03-19T07:46:04;100293.94;;;11.28;79.44
22605;BME280;11469;49.024;8.246;2023-03-19T07:48:30;100297.25;;;11.34;79.67
22605;BME280;11469;49.024;8.246;2023-03-19T07:50:55;100291.31;;;11.39;79.80
22605;BME280;11469;49.024;8.246;2023-03-19T07:53:21;100293.38;;;11.42;79.53
22605;BME280;11469;49.024;8.246;2023-03-19T07:55:47;100292.28;;;11.46;79.46
22605;BME280;11469;49.024;8.246;2023-03-19T07:58:12;100294.03;;;11.54;79.07
22605;BME280;11469;49.024;8.246;2023-03-19T08:00:37;100287.38;;;11.62;79.08
22605;BME280;11469;49.024;8.246;2023-03-19T08:03:03;100295.22;;;11.73;78.85
22605;BME280;11469;49.024;8.246;2023-03-19T08:05:28;100280.56;;;11.83;77.34
22605;BME280;11469;49.024;8.246;2023-03-19T08:07:54;100282.75;;;11.93;76.27
22605;BME280;11469;49.024;8.246;2023-03-19T08:10:19;100283.38;;;12.06;75.62
22605;BME280;11469;49.024;8.246;2023-03-19T08:12:45;100294.44;;;12.18;75.37
22605;BME280;11469;49.024;8.246;2023-03-19T08:15:11;100294.66;;;12.32;74.51
22605;BME280;11469;49.024;8.246;2023-03-19T08:17:36;100292.47;;;12.45;73.26
22605;BME280;11469;49.024;8.246;2023-03-19T08:20:13;100301.13;;;12.59;72.56
22605;BME280;11469;49.024;8.246;2023-03-19T08:22:41;100297.34;;;12.74;71.40
22605;BME280;11469;49.024;8.246;2023-03-19T08:25:08;100289.81;;;12.82;71.32
22605;BME280;11469;49.024;8.246;2023-03-19T08:27:33;100297.59;;;12.92;70.17
22605;BME280;11469;49.024;8.246;2023-03-19T08:30:04;100290.50;;;13.02;70.36
22605;BME280;11469;49.024;8.246;2023-03-19T08:32:30;100298.78;;;13.17;70.33
22605;BME280;11469;49.024;8.246;2023-03-19T08:34:56;100291.66;;;13.27;69.99
22605;BME280;11469;49.024;8.246;2023-03-19T08:37:21;100299.28;;;13.26;69.61
22605;BME280;11469;49.024;8.246;2023-03-19T08:39:49;100296.56;;;13.34;69.54
22605;BME280;11469;49.024;8.246;2023-03-19T08:42:15;100305.91;;;13.41;68.67
22605;BME280;11469;49.024;8.246;2023-03-19T08:44:40;100308.78;;;13.45;68.43
22605;BME280;11469;49.024;8.246;2023-03-19T08:47:05;100314.16;;;13.57;68.23
22605;BME280;11469;49.024;8.246;2023-03-19T08:49:31;100305.03;;;13.67;67.89
22605;BME280;11469;49.024;8.246;2023-03-19T08:51:56;100308.75;;;13.78;67.51
22605;BME280;11469;49.024;8.246;2023-03-19T08:54:22;100308.84;;;13.85;66.34
22605;BME280;11469;49.024;8.246;2023-03-19T08:56:47;100312.13;;;13.91;65.84
22605;BME280;11469;49.024;8.246;2023-03-19T08:59:12;100313.91;;;14.06;64.85
22605;BME280;11469;49.024;8.246;2023-03-19T09:01:38;100312.41;;;14.23;63.56
22605;BME280;11469;49.024;8.246;2023-03-19T09:04:03;100306.53;;;14.39;63.67
22605;BME280;11469;49.024;8.246;2023-03-19T09:06:29;100311.56;;;14.59;62.15
22605;BME280;11469;49.024;8.246;2023-03-19T09:08:54;100318.84;;;14.68;61.55
22605;BME280;11469;49.024;8.246;2023-03-19T09:11:20;100311.72;;;14.81;60.89
22605;BME280;11469;49.024;8.246;2023-03-19T09:13:47;100312.19;;;14.90;60.70
22605;BME280;11469;49.024;8.246;2023-03-19T09:16:12;100312.69;;;15.13;60.65
22605;BME280;11469;49.024;8.246;2023-03-19T09:18:38;100319.28;;;15.39;60.67
22605;BME280;11469;49.024;8.246;2023-03-19T09:21:03;100309.59;;;15.36;58.18
22605;BME280;11469;49.024;8.246;2023-03-19T09:23:28;100316.03;;;15.30;57.56
22605;BME280;11469;49.024;8.246;2023-03-19T09:25:54;100313.97;;;15.23;58.86
22605;BME280;11469;49.024;8.246;2023-03-19T09:28:21;100315.22;;;15.29;58.29
22605;BME280;11469;49.024;8.246;2023-03-19T09:30:49;100308.72;;;15.25;58.27
22605;BME280;11469;49.024;8.246;2023-03-19T09:33:17;100306.75;;;15.33;58.82
22605;BME280;11469;49.024;8.246;2023-03-19T09:35:48;100314.88;;;15.45;59.08
22605;BME280;11469;49.024;8.246;2023-03-19T09:38:14;100307.22;;;15.42;58.89
22605;BME280;11469;49.024;8.246;2023-03-19T09:40:43;100310.09;;;15.52;58.73
22605;BME280;11469;49.024;8.246;2023-03-19T09:45:45;100311.34;;;15.66;57.54
22605;BME280;11469;49.024;8.246;2023-03-19T09:48:18;100310.91;;;15.60;56.93
22605;BME280;11469;49.024;8.246;2023-03-19T09:50:45;100298.50;;;15.89;57.36
22605;BME280;11469;49.024;8.246;2023-03-19T09:53:29;100304.97;;;16.08;56.01
22605;BME280;11469;49.024;8.246;2023-03-19T09:55:57;100315.94;;;16.31;54.85
22605;BME280;11469;49.024;8.246;2023-03-19T09:58:33;100307.06;;;16.53;53.61
22605;BME280;11469;49.024;8.246;2023-03-19T10:00:59;100302.63;;;16.45;53.48
22605;BME280;11469;49.024;8.246;2023-03-19T10:17:24;100294.13;;;16.70;52.77
22605;BME280;11469;49.024;8.246;2023-03-19T10:20:03;100298.97;;;16.70;52.84
22605;BME280;11469;49.024;8.246;2023-03-19T10:23:03;100301.00;;;16.48;52.96
22605;BME280;11469;49.024;8.246;2023-03-19T10:25:36;100305.81;;;16.15;53.34
22605;BME280;11469;49.024;8.246;2023-03-19T10:28:13;100308.25;;;16.20;54.73
22605;BME280;11469;49.024;8.246;2023-03-19T10:30:41;100305.00;;;16.15;54.07
22605;BME280;11469;49.024;8.246;2023-03-19T10:33:25;100311.03;;;16.10;53.42
22605;BME280;11469;49.024;8.246;2023-03-19T10:36:02;100308.63;;;16.19;53.89
22605;BME280;11469;49.024;8.246;2023-03-19T10:38:28;100303.41;;;16.24;52.77
22605;BME280;11469;49.024;8.246;2023-03-19T10:41:20;100311.47;;;16.54;51.12
22605;BME280;11469;49.024;8.246;2023-03-19T10:43:53;100305.00;;;16.61;51.60
22605;BME280;11469;49.024;8.246;2023-03-19T10:46:18;100302.59;;;16.63;51.10
22605;BME280;11469;49.024;8.246;2023-03-19T10:48:46;100309.06;;;16.60;48.18
22605;BME280;11469;49.024;8.246;2023-03-19T10:51:30;100314.34;;;16.72;48.77
22605;BME280;11469;49.024;8.246;2023-03-19T10:53:59;100303.41;;;16.71;49.17
22605;BME280;11469;49.024;8.246;2023-03-19T10:56:27;100308.69;;;16.65;49.32
22605;BME280;11469;49.024;8.246;2023-03-19T10:58:57;100305.44;;;16.70;50.20
22605;BME280;11469;49.024;8.246;2023-03-19T11:01:27;100311.47;;;16.62;51.72
22605;BME280;11469;49.024;8.246;2023-03-19T11:03:57;100309.09;;;16.67;52.01
22605;BME280;11469;49.024;8.246;2023-03-19T11:06:36;100318.38;;;16.85;52.04
22605;BME280;11469;49.024;8.246;2023-03-19T11:09:12;100313.53;;;16.86;52.27
22605;BME280;11469;49.024;8.246;2023-03-19T11:11:50;100309.47;;;16.87;52.68
22605;BME280;11469;49.024;8.246;2023-03-19T11:14:25;100308.25;;;16.84;52.67
22605;BME280;11469;49.024;8.246;2023-03-19T11:16:57;100322.81;;;16.79;53.13
22605;BME280;11469;49.024;8.246;2023-03-19T11:19:29;100312.72;;;16.78;53.51
22605;BME280;11469;49.024;8.246;2023-03-19T11:24:35;100313.91;;;16.91;51.94
22605;BME280;11469;49.024;8.246;2023-03-19T11:27:01;100301.78;;;16.84;52.52
22605;BME280;11469;49.024;8.246;2023-03-19T11:29:28;100301.78;;;16.95;52.96
22605;BME280;11469;49.024;8.246;2023-03-19T11:32:11;100303.41;;;16.96;53.27
22605;BME280;11469;49.024;8.246;2023-03-19T11:34:57;100307.38;;;17.16;54.40
22605;BME280;11469;49.024;8.246;2023-03-19T11:37:32;100306.09;;;17.38;53.24
22605;BME280;11469;49.024;8.246;2023-03-19T11:42:46;100301.63;;;17.44;52.13
22605;BME280;11469;49.024;8.246;2023-03-19T11:45:35;100294.78;;;17.35;52.35
22605;BME280;11469;49.024;8.246;2023-03-19T11:48:05;100295.19;;;17.37;52.62
22605;BME280;11469;49.024;8.246;2023-03-19T11:56:13;100294.03;;;17.13;52.84
22605;BME280;11469;49.024;8.246;2023-03-19T12:05:14;100288.78;;;17.04;53.27
22605;BME280;11469;49.024;8.246;2023-03-19T12:13:30;100300.19;;;16.72;53.76
22605;BME280;11469;49.024;8.246;2023-03-19T12:19:00;100303.81;;;16.66;56.27
22605;BME280;11469;49.024;8.246;2023-03-19T12:27:39;100300.59;;;16.49;54.46
22605;BME280;11469;49.024;8.246;2023-03-19T12:30:35;100289.69;;;16.51;53.27
22605;BME280;11469;49.024;8.246;2023-03-19T12:33:10;100302.59;;;16.56;54.58
22605;BME280;11469;49.024;8.246;2023-03-19T12:35:42;100297.31;;;16.54;52.95
22605;BME280;11469;49.024;8.246;2023-03-19T12:38:26;100293.31;;;16.52;53.53
22605;BME280;11469;49.024;8.246;2023-03-19T12:41:06;100301.00;;;16.48;53.43
22605;BME280;11469;49.024;8.246;2023-03-19T12:43:46;100299.38;;;16.47;53.87
22605;BME280;11469;49.024;8.246;2023-03-19T12:46:22;100301.41;;;16.39;54.67
22605;BME280;11469;49.024;8.246;2023-03-19T12:49:32;100296.13;;;16.27;55.21
22605;BME280;11469;49.024;8.246;2023-03-19T12:51:40;100307.44;;;16.23;56.30
22605;BME280;11469;49.024;8.246;2023-03-19T12:54:13;100303.81;;;16.41;56.50
22605;BME280;11469;49.024;8.246;2023-03-19T12:56:48;100300.16;;;16.22;56.68
22605;BME280;11469;49.024;8.246;2023-03-19T12:59:27;100296.94;;;16.24;57.63
22605;BME280;11469;49.024;8.246;2023-03-19T13:02:11;100292.50;;;16.02;58.10
22605;BME280;11469;49.024;8.246;2023-03-19T13:04:50;100302.16;;;16.11;56.68
22605;BME280;11469;49.024;8.246;2023-03-19T13:07:31;100304.59;;;16.13;56.99
22605;BME280;11469;49.024;8.246;2023-03-19T13:10:18;100303.78;;;16.09;59.45
22605;BME280;11469;49.024;8.246;2023-03-19T13:12:45;100307.81;;;16.11;58.67
22605;BME280;11469;49.024;8.246;2023-03-19T13:15:29;100304.59;;;16.16;58.76
22605;BME280;11469;49.024;8.246;2023-03-19T13:21:08;100300.59;;;16.32;59.05
22605;BME280;11469;49.024;8.246;2023-03-19T13:23:39;100313.94;;;16.45;59.28
22605;BME280;11469;49.024;8.246;2023-03-19T13:26:09;100304.63;;;16.45;57.81
22605;BME280;11469;49.024;8.246;2023-03-19T13:28:51;100319.97;;;16.26;58.01
22605;BME280;11469;49.024;8.246;2023-03-19T13:31:23;100305.44;;;16.38;57.48
22605;BME280;11469;49.024;8.246;2023-03-19T13:33:52;100307.84;;;16.40;58.43
22605;BME280;11469;49.024;8.246;2023-03-19T13:36:26;100305.03;;;16.40;59.08
22605;BME280;11469;49.024;8.246;2023-03-19T13:38:52;100301.00;;;16.37;58.55
22605;BME280;11469;49.024;8.246;2023-03-19T13:43:59;100294.91;;;16.07;59.35
22605;BME280;11469;49.024;8.246;2023-03-19T13:46:28;100287.66;;;16.23;59.16
22605;BME280;11469;49.024;8.246;2023-03-19T13:49:02;100291.28;;;16.31;59.45
22605;BME280;11469;49.024;8.246;2023-03-19T13:51:34;100292.50;;;16.34;59.40
22605;BME280;11469;49.024;8.246;2023-03-19T13:56:27;100285.63;;;16.27;59.62